Time;durP1;ratioP1;P1;durP2;ratioP2;P2;SDS_P1;SDS_P2;PMS_P1;PMS_P2;Temp;Humidity;BMP_temperature;BMP_pressure;BME280_temperature;BME280_humidity;BME280_pressure;Samples;Min_cycle;Max_cycle;Signal;HPM_P1;HPM_P2
2023/01/07 00:01:11;;;;;;;17.52;8.63;;;;;;;5.81;52.90;95662.38;5028815;28;20056;-74
2023/01/07 00:03:36;;;;;;;15.25;8.27;;;;;;;5.78;52.92;95674.06;5044996;28;20032;-75
2023/01/07 00:06:07;;;;;;;15.40;8.27;;;;;;;5.76;53.39;95673.69;5041350;28;20045;-75
2023/01/07 00:08:34;;;;;;;15.00;8.70;;;;;;;5.75;53.33;95672.13;5025433;28;20033;-74
2023/01/07 00:11:07;;;;;;;17.17;8.95;;;;;;;5.72;53.38;95668.22;5028278;28;20048;-75
2023/01/07 00:13:32;;;;;;;17.17;9.88;;;;;;;5.68;53.48;95667.44;5027303;28;20025;-75
2023/01/07 00:16:06;;;;;;;19.45;10.13;;;;;;;5.66;53.43;95672.50;5029317;28;20434;-74
2023/01/07 00:18:31;;;;;;;19.50;9.75;;;;;;;5.56;53.63;95665.88;5029031;28;20035;-73
2023/01/07 00:20:57;;;;;;;16.90;9.00;;;;;;;5.53;53.78;95665.84;5044977;28;20465;-73
2023/01/07 00:23:23;;;;;;;21.20;10.73;;;;;;;5.53;53.82;95669.34;5046033;28;20471;-76
2023/01/07 00:25:50;;;;;;;14.27;9.48;;;;;;;5.52;53.96;95664.28;5044798;28;20128;-74
2023/01/07 00:28:15;;;;;;;16.05;9.85;;;;;;;5.49;53.58;95667.78;5045504;28;20040;-76
2023/01/07 00:30:41;;;;;;;14.98;8.90;;;;;;;5.50;53.81;95672.84;5044681;28;20546;-73
2023/01/07 00:33:06;;;;;;;16.98;9.23;;;;;;;5.50;53.90;95670.09;5043767;28;20025;-73
2023/01/07 00:35:33;;;;;;;19.83;10.77;;;;;;;5.39;54.06;95671.25;5043048;28;20033;-74
2023/01/07 00:37:58;;;;;;;17.25;9.05;;;;;;;5.40;53.89;95668.16;5028370;28;20024;-75
2023/01/07 00:40:24;;;;;;;17.83;9.15;;;;;;;5.43;53.76;95675.56;5012142;28;20017;-75
2023/01/07 00:43:03;;;;;;;19.08;10.30;;;;;;;5.41;53.79;95672.44;5044028;28;20032;-73
2023/01/07 00:45:31;;;;;;;12.43;8.95;;;;;;;5.35;53.92;95671.25;5045668;28;20086;-75
2023/01/07 00:47:57;;;;;;;15.70;8.68;;;;;;;5.30;54.03;95679.81;5043270;28;20083;-75
2023/01/07 00:50:24;;;;;;;17.55;9.25;;;;;;;5.26;54.08;95668.88;5045122;28;20029;-74
2023/01/07 00:52:49;;;;;;;18.90;9.18;;;;;;;5.27;54.25;95680.56;5042958;28;20024;-74
2023/01/07 00:55:15;;;;;;;19.17;11.30;;;;;;;5.25;54.14;95680.94;5040055;28;20472;-74
2023/01/07 00:57:41;;;;;;;17.17;9.77;;;;;;;5.21;54.31;95680.16;5045098;28;20052;-75
2023/01/07 01:00:08;;;;;;;18.90;9.70;;;;;;;5.16;54.21;95679.75;5027191;28;20098;-75
2023/01/07 01:02:34;;;;;;;14.27;9.25;;;;;;;5.20;53.69;95681.31;5028398;28;20029;-74
2023/01/07 01:04:59;;;;;;;13.98;8.18;;;;;;;5.18;54.14;95683.66;5045147;28;20095;-75
2023/01/07 01:07:25;;;;;;;17.70;8.52;;;;;;;5.09;54.26;95685.16;5046283;28;20049;-75
2023/01/07 01:09:50;;;;;;;14.55;8.55;;;;;;;5.07;54.29;95689.06;5044292;28;20037;-73
2023/01/07 01:12:15;;;;;;;15.82;8.57;;;;;;;5.10;54.14;95692.19;5044637;28;20032;-75
2023/01/07 01:14:41;;;;;;;14.80;8.02;;;;;;;5.07;54.22;95694.50;5045897;28;20048;-74
2023/01/07 01:17:06;;;;;;;11.60;7.38;;;;;;;5.01;54.49;95687.88;5042890;28;20450;-74
2023/01/07 01:19:32;;;;;;;13.85;7.55;;;;;;;4.97;54.24;95686.28;5044958;28;20544;-75
2023/01/07 01:21:57;;;;;;;11.82;6.45;;;;;;;4.98;54.54;95688.63;5033045;28;20029;-73
2023/01/07 01:24:23;;;;;;;14.23;7.22;;;;;;;4.84;54.63;95674.94;5033245;28;20057;-73
2023/01/07 01:26:48;;;;;;;11.38;6.05;;;;;;;4.99;54.65;95697.59;5025254;28;20029;-73
2023/01/07 01:29:13;;;;;;;10.35;6.03;;;;;;;4.94;54.68;95701.47;5026344;28;20021;-74
2023/01/07 01:31:39;;;;;;;13.65;7.05;;;;;;;4.91;54.74;95691.31;5025174;28;20033;-73
2023/01/07 01:34:04;;;;;;;15.52;7.40;;;;;;;4.95;54.61;95694.06;5025228;28;20026;-74
2023/01/07 01:36:30;;;;;;;11.32;6.32;;;;;;;4.97;54.83;95683.56;5026034;28;20079;-73
2023/01/07 01:38:56;;;;;;;14.43;7.05;;;;;;;4.92;54.99;95686.66;5026487;28;20083;-73
2023/01/07 01:41:21;;;;;;;12.10;6.60;;;;;;;4.86;55.17;95683.50;5044354;28;20033;-73
2023/01/07 01:43:47;;;;;;;14.40;6.20;;;;;;;4.88;55.12;95683.16;5026524;28;20025;-73
2023/01/07 01:46:17;;;;;;;12.57;6.65;;;;;;;4.95;55.03;95688.63;5045938;28;20574;-74
2023/01/07 01:48:48;;;;;;;13.80;6.32;;;;;;;4.92;55.29;95681.19;5041636;28;20029;-74
2023/01/07 01:51:13;;;;;;;14.10;7.10;;;;;;;4.96;54.72;95679.28;5042033;28;20117;-73
2023/01/07 01:53:39;;;;;;;11.98;6.97;;;;;;;4.93;54.75;95674.56;5014727;28;20029;-75
2023/01/07 01:56:18;;;;;;;12.00;6.80;;;;;;;4.89;54.88;95680.03;5025443;28;20064;-75
2023/01/07 01:58:46;;;;;;;14.77;8.60;;;;;;;4.85;55.11;95689.34;5028703;28;20037;-75
2023/01/07 02:01:12;;;;;;;18.02;8.77;;;;;;;4.77;55.05;95680.34;5026405;28;20029;-74
2023/01/07 02:03:37;;;;;;;16.40;8.57;;;;;;;4.76;55.50;95673.34;5027823;28;20051;-74
2023/01/07 02:06:03;;;;;;;16.70;7.85;;;;;;;4.75;55.89;95666.31;5043165;28;20415;-74
2023/01/07 02:08:28;;;;;;;14.60;8.48;;;;;;;4.68;55.71;95671.72;5040903;28;20091;-74
2023/01/07 02:11:04;;;;;;;15.00;9.00;;;;;;;4.66;55.39;95671.34;5034005;28;20709;-75
2023/01/07 02:13:47;;;;;;;18.83;7.93;;;;;;;4.67;55.46;95672.91;5022753;28;20048;-74
2023/01/07 02:16:34;;;;;;;17.00;8.07;;;;;;;4.68;55.44;95664.34;5025361;28;20043;-74
2023/01/07 02:19:18;;;;;;;16.20;8.88;;;;;;;4.67;55.32;95667.47;5035481;28;20045;-75
2023/01/07 02:22:02;;;;;;;14.35;7.75;;;;;;;4.68;55.47;95669.00;5044595;28;20037;-75
2023/01/07 02:24:52;;;;;;;20.73;10.13;;;;;;;4.66;55.51;95665.91;5044405;28;20060;-74
2023/01/07 02:27:40;;;;;;;19.63;11.10;;;;;;;4.66;55.16;95672.13;5043980;28;20033;-74
2023/01/07 02:30:50;;;;;;;17.10;9.00;;;;;;;4.62;55.44;95665.88;5049088;28;20078;-74
2023/01/07 02:33:40;;;;;;;18.25;9.00;;;;;;;4.62;55.43;95671.31;5040506;28;20071;-75
2023/01/07 02:36:54;;;;;;;20.20;9.60;;;;;;;4.60;55.58;95678.31;5029429;28;20029;-74
2023/01/07 02:39:37;;;;;;;18.55;9.13;;;;;;;4.55;55.60;95675.94;5030456;28;20155;-74
2023/01/07 02:42:36;;;;;;;17.40;8.63;;;;;;;4.56;55.53;95672.84;5015232;28;20033;-75
2023/01/07 02:45:19;;;;;;;17.17;9.07;;;;;;;4.53;55.46;95668.94;5013672;28;20542;-74
2023/01/07 02:47:53;;;;;;;13.15;8.55;;;;;;;4.53;55.99;95668.94;5028215;28;20033;-75
2023/01/07 02:50:18;;;;;;;;;;;;;;;4.47;55.86;95673.19;5018066;28;20033;-75
2023/01/07 02:52:44;;;;;;;15.93;7.60;;;;;;;4.46;55.72;95673.53;5034284;28;19990;-74
2023/01/07 02:55:13;;;;;;;18.23;9.02;;;;;;;4.42;55.81;95673.53;5028856;28;20037;-75
2023/01/07 02:57:53;;;;;;;17.48;8.60;;;;;;;4.45;55.79;95669.25;5026222;28;20033;-74
2023/01/07 03:00:40;;;;;;;14.10;8.57;;;;;;;4.45;55.87;95680.94;5028308;28;20052;-74
2023/01/07 03:03:13;;;;;;;19.98;8.93;;;;;;;4.46;55.28;95681.72;5028919;28;20033;-75
2023/01/07 03:06:11;;;;;;;13.23;8.50;;;;;;;4.42;55.36;95681.69;5025378;28;20030;-75
2023/01/07 03:08:46;;;;;;;15.95;9.40;;;;;;;4.38;55.61;95677.38;5019559;28;20033;-74
2023/01/07 03:11:11;;;;;;;17.77;10.60;;;;;;;4.33;55.42;95678.53;5030983;28;20032;-74
2023/01/07 03:13:54;;;;;;;20.95;10.63;;;;;;;4.29;55.59;95680.44;5045829;28;20029;-76
2023/01/07 03:16:26;;;;;;;16.73;9.55;;;;;;;4.31;55.37;95669.19;5031661;28;20057;-73
2023/01/07 03:18:57;;;;;;;23.13;12.05;;;;;;;4.34;55.64;95680.06;5028918;28;20021;-74
2023/01/07 03:21:23;;;;;;;19.25;11.68;;;;;;;4.33;55.36;95681.25;5028518;28;20025;-74
2023/01/07 03:23:50;;;;;;;24.55;13.95;;;;;;;4.31;55.40;95678.13;5028701;28;20032;-76
2023/01/07 03:26:18;;;;;;;25.48;12.98;;;;;;;4.22;55.42;95677.66;5041868;28;20420;-74
2023/01/07 03:28:43;;;;;;;22.88;13.85;;;;;;;4.24;55.58;95681.59;5043236;28;20045;-75
2023/01/07 03:31:11;;;;;;;24.52;13.00;;;;;;;4.29;54.94;95677.72;5044150;28;20375;-74
2023/01/07 03:33:44;;;;;;;26.15;14.82;;;;;;;4.32;54.84;95676.19;5030307;28;20028;-75
2023/01/07 03:36:10;;;;;;;22.10;13.23;;;;;;;4.31;55.19;95680.06;5027697;28;20032;-74
2023/01/07 03:38:36;;;;;;;21.55;13.18;;;;;;;4.35;55.11;95676.19;5029301;28;20090;-74
2023/01/07 03:41:01;;;;;;;22.60;13.07;;;;;;;4.37;55.08;95679.34;5029234;28;20025;-75
2023/01/07 03:43:27;;;;;;;21.00;13.35;;;;;;;4.35;55.12;95678.13;5045908;28;20017;-75
2023/01/07 03:45:52;;;;;;;23.67;13.63;;;;;;;4.35;55.28;95680.84;5046357;28;20036;-75
2023/01/07 03:48:18;;;;;;;21.25;11.80;;;;;;;4.30;55.57;95673.84;5028087;28;20047;-74
2023/01/07 03:50:43;;;;;;;17.60;11.18;;;;;;;4.39;55.55;95681.66;5045791;28;20116;-74
2023/01/07 03:53:08;;;;;;;23.80;12.60;;;;;;;4.39;55.29;95685.16;5035984;28;20037;-74
2023/01/07 03:55:34;;;;;;;20.88;11.05;;;;;;;4.39;55.54;95681.66;5027852;28;20025;-75
2023/01/07 03:57:59;;;;;;;17.67;11.45;;;;;;;4.41;55.57;95685.56;5008652;28;20026;-74
2023/01/07 04:00:25;;;;;;;18.33;10.80;;;;;;;4.45;55.52;95691.81;5026055;28;20041;-75
2023/01/07 04:02:50;;;;;;;19.48;12.68;;;;;;;4.48;55.27;95688.34;5009476;28;20084;-76
2023/01/07 04:05:16;;;;;;;19.75;11.60;;;;;;;4.54;55.05;95688.78;5025249;28;20022;-75
2023/01/07 04:07:41;;;;;;;23.35;12.40;;;;;;;4.56;54.99;95691.13;5025587;28;20060;-75
2023/01/07 04:10:07;;;;;;;22.65;12.43;;;;;;;4.58;55.07;95696.97;5026415;28;20406;-77
2023/01/07 04:12:32;;;;;;;22.02;12.77;;;;;;;4.56;55.13;95699.28;5046428;28;20028;-74
2023/01/07 04:14:58;;;;;;;59.83;27.15;;;;;;;4.55;55.28;95695.78;5023833;28;20316;-74
2023/01/07 04:17:23;;;;;;;52.65;26.98;;;;;;;4.58;55.20;95691.50;5010872;28;20060;-74
2023/01/07 04:19:49;;;;;;;46.92;24.73;;;;;;;4.69;55.19;95704.03;5026588;28;20108;-75
2023/01/07 04:22:14;;;;;;;36.00;18.58;;;;;;;4.68;55.18;95699.75;5009098;28;20083;-74
2023/01/07 04:24:40;;;;;;;35.58;17.35;;;;;;;4.69;55.60;95698.59;5027031;28;20135;-73
2023/01/07 04:27:05;;;;;;;23.90;14.40;;;;;;;4.74;55.58;95711.06;5024605;28;20079;-74
2023/01/07 04:29:30;;;;;;;21.45;13.93;;;;;;;4.73;55.51;95706.78;5027336;28;20029;-73
2023/01/07 04:31:56;;;;;;;19.17;11.95;;;;;;;4.73;55.63;95701.34;5022601;28;20048;-75
2023/01/07 04:34:22;;;;;;;18.20;11.15;;;;;;;4.80;55.70;95712.28;5045922;28;20484;-75
2023/01/07 04:36:47;;;;;;;16.83;10.48;;;;;;;4.80;55.59;95710.31;5028065;28;20041;-74
2023/01/07 04:39:13;;;;;;;13.95;8.57;;;;;;;4.79;55.51;95710.72;5044601;28;20029;-74
2023/01/07 04:41:38;;;;;;;12.20;7.35;;;;;;;4.80;55.72;95717.72;5046362;28;20040;-74
2023/01/07 04:44:04;;;;;;;11.48;8.50;;;;;;;4.74;55.96;95719.25;5044418;28;20065;-76
2023/01/07 04:46:29;;;;;;;12.10;8.48;;;;;;;4.75;55.68;95718.84;5027935;28;20083;-74
2023/01/07 04:48:55;;;;;;;21.77;10.07;;;;;;;4.76;55.61;95717.72;5043768;28;20055;-75
2023/01/07 04:51:20;;;;;;;16.08;9.10;;;;;;;4.77;55.68;95722.00;5044958;28;20259;-75
2023/01/07 04:53:46;;;;;;;14.93;9.95;;;;;;;4.80;55.78;95723.94;5044088;28;20048;-74
2023/01/07 04:56:12;;;;;;;17.27;9.85;;;;;;;4.82;55.73;95715.41;5046775;28;20399;-74
2023/01/07 04:58:37;;;;;;;15.10;9.10;;;;;;;4.85;55.68;95722.03;5011047;28;20056;-74
2023/01/07 05:01:03;;;;;;;12.15;8.52;;;;;;;4.87;55.58;95725.16;5045004;28;20025;-74
2023/01/07 05:03:29;;;;;;;15.20;9.45;;;;;;;4.87;55.71;95725.16;5028429;28;20029;-75
2023/01/07 05:05:54;;;;;;;14.55;9.25;;;;;;;4.88;55.42;95721.28;5007550;28;20488;-74
2023/01/07 05:08:20;;;;;;;14.60;9.07;;;;;;;4.88;55.63;95716.63;5026691;28;20045;-75
2023/01/07 05:10:48;;;;;;;14.75;9.52;;;;;;;4.86;55.47;95721.66;5016300;28;20403;-73
2023/01/07 05:13:15;;;;;;;15.10;8.77;;;;;;;4.84;55.55;95726.69;5012352;28;20044;-73
2023/01/07 05:15:40;;;;;;;14.68;8.45;;;;;;;4.84;55.52;95717.75;5021453;28;20491;-75
2023/01/07 05:18:06;;;;;;;15.05;9.43;;;;;;;4.80;55.32;95723.94;5024707;28;20028;-75
2023/01/07 05:20:31;;;;;;;15.15;9.05;;;;;;;4.78;55.31;95714.59;5025927;28;20578;-74
2023/01/07 05:22:57;;;;;;;14.63;9.48;;;;;;;4.77;55.26;95730.16;5023968;28;20029;-74
2023/01/07 05:25:22;;;;;;;16.48;9.68;;;;;;;4.76;55.45;95728.63;5024758;28;20032;-74
2023/01/07 05:27:47;;;;;;;23.85;14.13;;;;;;;4.78;55.35;95737.19;5023112;28;20455;-74
2023/01/07 05:30:13;;;;;;;30.83;17.85;;;;;;;4.71;55.34;95739.09;5008665;28;20923;-74
2023/01/07 05:32:38;;;;;;;30.58;17.65;;;;;;;4.69;55.27;95735.94;5032186;28;20033;-75
2023/01/07 05:35:04;;;;;;;23.52;14.50;;;;;;;4.66;55.39;95734.00;5036032;28;20022;-75
2023/01/07 05:37:30;;;;;;;21.98;13.55;;;;;;;4.66;55.17;95729.31;5025635;28;20032;-74
2023/01/07 05:39:55;;;;;;;19.70;12.80;;;;;;;4.61;55.09;95729.66;5033781;28;20040;-76
2023/01/07 05:42:20;;;;;;;18.10;12.13;;;;;;;4.59;55.14;95736.63;5025674;28;20037;-75
2023/01/07 05:44:46;;;;;;;19.67;13.27;;;;;;;4.58;55.09;95743.25;5026688;28;20039;-76
2023/01/07 05:47:11;;;;;;;20.70;13.48;;;;;;;4.52;55.09;95724.53;5044852;28;20044;-75
2023/01/07 05:49:37;;;;;;;21.83;13.10;;;;;;;4.50;54.99;95732.31;5026070;28;20032;-74
2023/01/07 05:52:02;;;;;;;20.27;13.88;;;;;;;4.44;54.92;95735.78;5038017;28;20052;-75
2023/01/07 05:54:27;;;;;;;19.42;13.93;;;;;;;4.39;55.30;95730.69;5024719;28;20404;-75
2023/01/07 05:56:53;;;;;;;20.75;13.38;;;;;;;4.38;55.19;95740.00;5024597;28;20045;-75
2023/01/07 05:59:18;;;;;;;21.33;13.00;;;;;;;4.35;55.15;95738.81;5040181;28;20029;-75
2023/01/07 06:01:44;;;;;;;17.80;12.43;;;;;;;4.33;55.26;95746.56;5041194;28;20037;-75
2023/01/07 06:04:09;;;;;;;35.92;20.80;;;;;;;4.31;55.25;95740.72;5014622;28;20032;-76
2023/01/07 06:06:36;;;;;;;42.45;27.17;;;;;;;4.32;54.93;95736.06;5026835;28;20403;-75
2023/01/07 06:09:01;;;;;;;30.80;19.00;;;;;;;4.36;55.07;95740.38;5029992;28;20045;-75
2023/01/07 06:11:27;;;;;;;25.55;13.15;;;;;;;4.32;55.44;95745.00;5027527;28;20514;-74
2023/01/07 06:13:52;;;;;;;23.45;13.88;;;;;;;4.32;55.42;95738.78;5028213;28;20022;-74
2023/01/07 06:16:17;;;;;;;19.15;12.65;;;;;;;4.33;55.53;95743.06;5036297;28;20472;-75
2023/01/07 06:18:43;;;;;;;25.15;14.68;;;;;;;4.37;55.34;95747.41;5029851;28;20550;-75
2023/01/07 06:21:08;;;;;;;24.90;14.98;;;;;;;4.38;55.43;95753.63;5037798;28;20405;-76
2023/01/07 06:23:34;;;;;;;23.60;15.20;;;;;;;4.33;55.23;95740.34;5026961;28;20029;-76
2023/01/07 06:26:00;;;;;;;19.13;12.95;;;;;;;4.43;55.11;95750.56;5028398;28;20048;-73
2023/01/07 06:28:25;;;;;;;26.30;14.20;;;;;;;4.48;55.00;95745.53;5033949;28;20063;-76
2023/01/07 06:30:50;;;;;;;22.27;14.38;;;;;;;4.50;54.87;95751.38;5029452;28;20501;-74
2023/01/07 06:33:16;;;;;;;21.48;13.93;;;;;;;4.46;55.06;95744.34;5027083;28;20030;-78
2023/01/07 06:35:41;;;;;;;22.02;13.90;;;;;;;4.54;54.97;95743.25;5027722;28;20032;-75
2023/01/07 06:38:07;;;;;;;21.50;13.18;;;;;;;4.62;54.87;95746.78;5027851;28;20057;-75
2023/01/07 06:40:32;;;;;;;23.58;14.52;;;;;;;4.61;54.85;95748.72;5040506;28;20021;-74
2023/01/07 06:42:58;;;;;;;20.33;13.02;;;;;;;4.60;54.96;95747.19;5029579;28;20515;-76
2023/01/07 06:45:23;;;;;;;19.80;12.00;;;;;;;4.63;55.50;95751.06;5045758;28;20125;-73
2023/01/07 06:47:49;;;;;;;28.02;14.82;;;;;;;4.69;55.30;95752.28;5049212;28;20029;-74
2023/01/07 06:50:14;;;;;;;24.95;15.57;;;;;;;4.76;55.23;95755.84;5043903;28;20025;-74
2023/01/07 06:52:40;;;;;;;25.10;16.10;;;;;;;4.77;55.17;95754.69;5028932;28;20053;-74
2023/01/07 06:55:05;;;;;;;30.02;16.05;;;;;;;4.81;55.32;95757.41;5010305;28;20423;-75
2023/01/07 06:57:31;;;;;;;24.00;15.80;;;;;;;4.92;55.10;95763.72;5029027;28;20037;-74
2023/01/07 06:59:56;;;;;;;27.52;15.73;;;;;;;4.95;54.81;95762.97;5035292;28;20029;-74
2023/01/07 07:02:23;;;;;;;24.55;16.50;;;;;;;5.01;54.74;95771.56;5035864;28;20037;-77
2023/01/07 07:04:49;;;;;;;33.97;19.80;;;;;;;5.07;54.81;95768.09;5027589;28;20119;-76
2023/01/07 07:07:15;;;;;;;35.08;20.80;;;;;;;5.14;54.79;95759.19;5027090;28;20120;-74
2023/01/07 07:09:40;;;;;;;33.00;21.77;;;;;;;5.30;53.66;95772.50;5012303;28;20033;-74
2023/01/07 07:12:06;;;;;;;40.13;22.77;;;;;;;5.38;53.73;95771.34;5018434;28;20029;-74
2023/01/07 07:14:31;;;;;;;41.63;24.25;;;;;;;5.52;53.31;95765.19;5046122;28;20104;-75
2023/01/07 07:16:59;;;;;;;44.30;25.92;;;;;;;5.62;52.79;95774.56;5031567;28;20084;-76
2023/01/07 07:19:25;;;;;;;39.35;24.45;;;;;;;5.74;52.23;95766.84;5009243;28;20036;-74
2023/01/07 07:21:50;;;;;;;39.47;24.40;;;;;;;5.75;52.09;95765.66;5035127;28;20527;-74
2023/01/07 07:24:16;;;;;;;36.55;24.35;;;;;;;5.84;51.49;95768.78;5025219;28;20034;-74
2023/01/07 07:26:41;;;;;;;37.17;21.60;;;;;;;5.79;51.59;95776.56;5027185;28;20028;-74
2023/01/07 07:29:08;;;;;;;39.58;21.38;;;;;;;5.75;51.40;95762.94;5036309;28;20127;-76
2023/01/07 07:31:34;;;;;;;31.95;21.23;;;;;;;5.89;51.32;95780.50;5030484;28;20025;-76
2023/01/07 07:33:59;;;;;;;30.77;20.58;;;;;;;5.99;51.29;95772.38;5039824;28;20036;-74
2023/01/07 07:36:24;;;;;;;39.35;21.90;;;;;;;6.07;51.09;95773.94;5041114;28;20085;-73
2023/01/07 07:38:50;;;;;;;38.50;20.17;;;;;;;6.17;50.81;95766.94;5027523;28;20026;-75
2023/01/07 07:41:15;;;;;;;30.17;18.98;;;;;;;6.35;50.46;95767.75;5042200;28;20051;-75
2023/01/07 07:43:41;;;;;;;33.80;19.33;;;;;;;6.50;50.23;95771.28;5048204;28;20450;-74
2023/01/07 07:46:06;;;;;;;34.63;20.75;;;;;;;6.77;49.73;95768.94;5027770;28;20040;-73
2023/01/07 07:48:32;;;;;;;28.70;17.45;;;;;;;7.01;49.41;95770.06;5046604;28;20033;-76
2023/01/07 07:50:57;;;;;;;30.98;17.70;;;;;;;7.29;48.84;95765.72;5022684;28;20021;-76
2023/01/07 07:53:23;;;;;;;26.88;17.63;;;;;;;7.60;47.74;95769.50;5045142;28;20499;-76
2023/01/07 07:55:48;;;;;;;30.20;18.45;;;;;;;7.82;47.30;95761.97;5047194;28;20075;-74
2023/01/07 07:58:13;;;;;;;27.15;17.88;;;;;;;8.06;46.69;95763.03;5046525;28;20036;-75
2023/01/07 08:00:39;;;;;;;25.65;18.60;;;;;;;8.39;46.16;95769.88;5029613;28;20060;-75
2023/01/07 08:03:04;;;;;;;27.00;18.02;;;;;;;8.74;45.69;95769.59;5044866;28;20108;-75
2023/01/07 08:05:30;;;;;;;26.23;17.70;;;;;;;9.07;44.80;95772.06;5047108;28;20033;-75
2023/01/07 08:07:57;;;;;;;31.35;19.00;;;;;;;9.58;43.88;95777.41;5044057;28;20037;-75
2023/01/07 08:10:22;;;;;;;34.22;21.15;;;;;;;10.58;41.82;95775.31;5021971;28;20070;-75
2023/01/07 08:12:49;;;;;;;37.38;20.92;;;;;;;12.87;37.44;95771.56;5011967;28;20059;-75
2023/01/07 08:15:15;;;;;;;35.05;21.30;;;;;;;15.59;32.43;95771.44;5045195;28;20048;-75
2023/01/07 08:17:41;;;;;;;28.98;19.08;;;;;;;17.50;29.06;95772.81;5037855;28;20037;-75
2023/01/07 08:20:06;;;;;;;29.83;19.05;;;;;;;19.03;26.42;95779.03;5035991;28;20082;-75
2023/01/07 08:22:32;;;;;;;30.30;19.63;;;;;;;20.32;25.28;95780.88;5028919;28;20116;-76
2023/01/07 08:24:58;;;;;;;31.27;19.90;;;;;;;21.73;23.74;95782.53;5026519;28;20029;-75
2023/01/07 08:27:23;;;;;;;28.42;20.10;;;;;;;23.14;21.69;95779.06;5032734;28;20113;-75
2023/01/07 08:29:49;;;;;;;28.52;20.55;;;;;;;24.24;20.59;95784.16;5022651;28;20400;-76
2023/01/07 08:32:14;;;;;;;27.40;19.58;;;;;;;25.21;19.31;95764.81;5009214;28;20037;-75
2023/01/07 08:34:39;;;;;;;26.30;19.75;;;;;;;26.25;18.59;95777.50;5036795;28;20017;-74
2023/01/07 08:37:05;;;;;;;28.15;20.30;;;;;;;27.41;17.32;95782.00;5045630;28;20041;-74
2023/01/07 08:39:30;;;;;;;25.75;19.00;;;;;;;28.22;16.40;95773.66;5031160;28;20036;-73
2023/01/07 08:41:56;;;;;;;27.48;18.65;;;;;;;29.22;15.64;95782.69;5023725;28;20033;-75
2023/01/07 08:44:21;;;;;;;23.52;17.95;;;;;;;30.02;14.86;95783.50;5020948;28;20041;-74
2023/01/07 08:46:46;;;;;;;21.58;16.35;;;;;;;30.78;14.40;95780.84;5044064;28;20128;-75
2023/01/07 08:49:12;;;;;;;18.63;15.00;;;;;;;31.54;13.66;95780.75;5034139;28;20026;-76
2023/01/07 08:51:37;;;;;;;22.48;15.77;;;;;;;31.95;13.39;95779.16;5038920;28;20404;-74
2023/01/07 08:54:03;;;;;;;17.63;14.60;;;;;;;32.48;12.69;95775.81;5043570;28;20085;-77
2023/01/07 08:56:28;;;;;;;20.70;14.00;;;;;;;32.94;12.57;95781.63;5026865;28;20090;-76
2023/01/07 08:58:56;;;;;;;17.48;13.93;;;;;;;33.51;12.07;95772.75;5039189;28;20254;-81
2023/01/07 09:01:22;;;;;;;21.38;15.73;;;;;;;33.96;11.69;95776.88;5031214;28;20075;-78
2023/01/07 09:03:47;;;;;;;17.80;14.55;;;;;;;34.54;10.97;95778.59;5034662;28;20017;-77
2023/01/07 09:06:13;;;;;;;18.42;15.48;;;;;;;34.97;10.94;95773.03;5044381;28;20029;-74
2023/01/07 09:08:39;;;;;;;18.73;15.20;;;;;;;35.39;10.27;95767.38;5027493;28;20128;-74
2023/01/07 09:11:04;;;;;;;18.60;15.50;;;;;;;35.77;10.19;95763.44;5009608;28;20413;-74
2023/01/07 09:13:30;;;;;;;18.67;13.45;;;;;;;36.05;9.99;95756.47;5038405;28;20456;-75
2023/01/07 09:15:56;;;;;;;16.63;14.70;;;;;;;36.28;10.11;95747.63;5026970;28;20086;-74
2023/01/07 09:18:21;;;;;;;20.67;14.20;;;;;;;36.63;9.91;95751.19;5027516;28;20071;-76
2023/01/07 09:20:46;;;;;;;17.08;12.57;;;;;;;37.01;9.67;95759.28;5032471;28;20518;-76
2023/01/07 09:23:13;;;;;;;15.85;11.45;;;;;;;37.43;9.45;95747.53;5008645;28;20025;-75
2023/01/07 09:25:38;;;;;;;13.85;10.25;;;;;;;37.89;8.74;95743.88;5009172;28;20048;-76
2023/01/07 09:28:04;;;;;;;13.93;9.43;;;;;;;38.18;8.77;95737.38;5003197;28;20045;-75
2023/01/07 09:30:30;;;;;;;15.25;9.80;;;;;;;38.45;8.65;95737.97;5021275;28;20055;-76
2023/01/07 09:32:55;;;;;;;14.63;10.43;;;;;;;38.75;8.74;95739.44;5023773;28;20036;-76
2023/01/07 09:35:21;;;;;;;15.55;11.00;;;;;;;38.98;8.24;95726.69;4988253;28;20033;-75
2023/01/07 09:37:46;;;;;;;16.02;10.80;;;;;;;39.30;8.16;95717.47;5018878;28;20033;-76
2023/01/07 09:40:26;;;;;;;16.45;10.18;;;;;;;39.64;8.00;95724.13;5042762;28;20048;-75
2023/01/07 09:43:10;;;;;;;14.35;9.95;;;;;;;40.00;7.90;95711.44;5025332;28;20048;-74
2023/01/07 09:45:39;;;;;;;13.27;9.80;;;;;;;40.21;7.64;95704.19;5042522;28;20496;-75
2023/01/07 09:48:15;;;;;;;12.10;9.15;;;;;;;40.45;7.59;95699.25;5040516;28;20029;-73
2023/01/07 09:50:46;;;;;;;11.43;8.23;;;;;;;40.68;7.58;95689.94;5007389;28;20029;-74
2023/01/07 09:53:21;;;;;;;13.73;9.13;;;;;;;40.90;7.09;95699.97;5035108;28;20040;-74
2023/01/07 09:55:47;;;;;;;13.57;8.70;;;;;;;41.10;6.96;95677.44;5022994;28;20036;-74
2023/01/07 09:58:13;;;;;;;13.75;8.20;;;;;;;41.05;6.79;95676.44;5014598;28;20025;-73
2023/01/07 10:00:39;;;;;;;13.63;8.32;;;;;;;40.90;7.12;95676.16;5035491;28;20052;-76
2023/01/07 10:03:19;;;;;;;11.98;7.70;;;;;;;40.99;7.45;95672.44;5025119;28;20033;-76
2023/01/07 10:06:15;;;;;;;12.30;7.93;;;;;;;41.36;7.14;95667.56;5025483;28;20060;-78
2023/01/07 10:08:55;;;;;;;13.10;7.88;;;;;;;41.64;6.98;95659.09;5039713;28;20037;-76
2023/01/07 10:11:48;;;;;;;14.07;7.90;;;;;;;41.94;6.87;95644.97;5038468;28;20048;-76
2023/01/07 10:14:25;;;;;;;16.48;7.82;;;;;;;42.35;6.68;95660.34;5043741;28;20408;-77
2023/01/07 10:17:41;;;;;;;10.43;7.20;;;;;;;42.60;6.35;95653.06;5037867;28;20049;-78
2023/01/07 10:20:28;;;;;;;9.90;6.63;;;;;;;43.02;6.32;95646.00;5055013;28;20407;-77
2023/01/07 10:23:11;;;;;;;10.77;8.43;;;;;;;43.59;5.99;95649.00;5035378;28;20037;-76
2023/01/07 10:25:47;;;;;;;13.02;7.70;;;;;;;43.82;5.82;95648.03;5037433;28;20066;-78
2023/01/07 10:28:20;;;;;;;12.63;6.85;;;;;;;44.20;5.65;95634.72;5027516;28;20028;-78
2023/01/07 10:30:46;;;;;;;12.45;7.03;;;;;;;44.51;5.28;95633.28;5036828;28;20548;-77
2023/01/07 10:33:25;;;;;;;11.75;6.88;;;;;;;44.77;5.21;95630.88;5027232;28;20120;-79
2023/01/07 10:36:24;;;;;;;10.43;7.10;;;;;;;44.94;5.21;95618.63;5043726;28;20036;-80
2023/01/07 10:39:04;;;;;;;12.05;7.43;;;;;;;45.01;5.17;95608.06;5024876;28;20034;-79
2023/01/07 10:41:52;;;;;;;11.35;7.05;;;;;;;45.44;4.96;95604.94;5037148;28;20033;-78
2023/01/07 10:44:23;;;;;;;10.65;7.15;;;;;;;45.90;4.80;95604.69;5044440;28;20472;-77
2023/01/07 10:47:05;;;;;;;9.70;6.80;;;;;;;45.87;4.79;95600.19;5037597;28;20699;-77
2023/01/07 10:49:58;;;;;;;8.27;6.10;;;;;;;46.41;4.61;95598.78;5046214;28;20058;-78
2023/01/07 10:52:27;;;;;;;12.60;6.47;;;;;;;46.73;4.69;95589.84;5047098;28;20068;-80
2023/01/07 10:55:08;;;;;;;13.18;5.55;;;;;;;46.95;4.53;95590.72;5045339;28;20036;-78
2023/01/07 10:57:33;;;;;;;6.50;4.57;;;;;;;47.19;4.12;95579.19;5047093;28;20029;-78
2023/01/07 11:00:03;;;;;;;10.52;5.10;;;;;;;47.01;4.34;95575.63;5029061;28;20036;-77
2023/01/07 11:02:29;;;;;;;13.15;6.40;;;;;;;47.40;4.35;95574.88;5021109;28;20683;-78
2023/01/07 11:04:55;;;;;;;8.90;5.40;;;;;;;47.82;3.76;95577.78;5045839;28;20176;-76
2023/01/07 11:07:26;;;;;;;7.97;5.38;;;;;;;48.18;4.04;95574.56;5019349;28;20728;-77
2023/01/07 11:09:51;;;;;;;9.03;4.20;;;;;;;48.57;3.69;95564.88;5043368;28;20392;-77
2023/01/07 11:12:23;;;;;;;5.57;3.22;;;;;;;47.05;4.28;95567.06;5045084;28;20032;-78
2023/01/07 11:14:49;;;;;;;7.97;3.90;;;;;;;46.26;4.51;95562.59;5044904;28;20499;-79
2023/01/07 11:17:51;;;;;;;10.90;3.88;;;;;;;46.41;4.48;95552.28;5044535;28;20059;-79
2023/01/07 11:20:35;;;;;;;;;;;;;;;46.63;4.58;95545.84;5047871;28;20029;-77
2023/01/07 11:23:01;;;;;;;6.60;2.65;;;;;;;46.67;4.57;95548.91;5034489;28;19927;-76
2023/01/07 11:25:27;;;;;;;4.80;2.50;;;;;;;46.93;4.14;95544.09;5029243;28;20026;-76
2023/01/07 11:27:55;;;;;;;4.28;2.40;;;;;;;47.18;4.34;95542.06;5030785;28;20029;-78
2023/01/07 11:30:20;;;;;;;3.78;2.00;;;;;;;47.05;4.60;95532.91;5047228;28;20037;-76
2023/01/07 11:33:00;;;;;;;5.90;3.05;;;;;;;46.09;4.38;95522.69;5045617;28;20123;-78
2023/01/07 11:35:28;;;;;;;5.30;2.67;;;;;;;44.85;5.23;95518.19;5029310;28;20453;-78
2023/01/07 11:37:54;;;;;;;4.90;2.88;;;;;;;45.02;5.22;95514.63;5008522;28;20029;-76